sensor_id;sensor_type;location;lat;lon;timestamp;pressure;altitude;pressure_sealevel;temperature;humidity
29935;BME280;19905;53.370;-6.314;2023-07-24T00:00:56;100496.28;;;12.40;100.00
29935;BME280;19905;53.370;-6.314;2023-07-24T00:03:25;100502.41;;;12.40;100.00
29935;BME280;19905;53.370;-6.314;2023-07-24T00:05:57;100497.41;;;12.37;100.00
29935;BME280;19905;53.370;-6.314;2023-07-24T00:08:26;100502.97;;;12.34;100.00
29935;BME280;19905;53.370;-6.314;2023-07-24T00:10:55;100501.41;;;12.32;100.00
29935;BME280;19905;53.370;-6.314;2023-07-24T00:13:25;100509.50;;;12.30;100.00
29935;BME280;19905;53.370;-6.314;2023-07-24T00:15:54;100503.50;;;12.28;100.00
29935;BME280;19905;53.370;-6.314;2023-07-24T00:18:22;100506.16;;;12.28;100.00
29935;BME280;19905;53.370;-6.314;2023-07-24T00:20:52;100507.25;;;12.26;100.00
29935;BME280;19905;53.370;-6.314;2023-07-24T00:23:20;100505.69;;;12.23;100.00
29935;BME280;19905;53.370;-6.314;2023-07-24T00:25:49;100511.28;;;12.20;100.00
29935;BME280;19905;53.370;-6.314;2023-07-24T00:28:18;100510.00;;;12.14;100.00
29935;BME280;19905;53.370;-6.314;2023-07-24T00:30:48;100507.59;;;12.11;100.00
29935;BME280;19905;53.370;-6.314;2023-07-24T00:33:16;100509.53;;;12.09;100.00
29935;BME280;19905;53.370;-6.314;2023-07-24T00:35:45;100501.72;;;12.08;100.00
29935;BME280;19905;53.370;-6.314;2023-07-24T00:38:13;100510.91;;;12.04;100.00
29935;BME280;19905;53.370;-6.314;2023-07-24T00:40:42;100512.13;;;12.00;100.00
29935;BME280;19905;53.370;-6.314;2023-07-24T00:43:11;100514.91;;;11.98;100.00
29935;BME280;19905;53.370;-6.314;2023-07-24T00:45:39;100514.22;;;11.96;100.00
29935;BME280;19905;53.370;-6.314;2023-07-24T00:48:10;100528.69;;;11.92;100.00
29935;BME280;19905;53.370;-6.314;2023-07-24T00:50:38;100524.47;;;11.89;100.00
29935;BME280;19905;53.370;-6.314;2023-07-24T00:53:07;100516.09;;;11.84;100.00
29935;BME280;19905;53.370;-6.314;2023-07-24T00:55:36;100522.34;;;11.83;100.00
29935;BME280;19905;53.370;-6.314;2023-07-24T00:58:05;100521.59;;;11.81;100.00
29935;BME280;19905;53.370;-6.314;2023-07-24T01:00:34;100525.34;;;11.79;100.00
29935;BME280;19905;53.370;-6.314;2023-07-24T01:03:02;100526.34;;;11.78;100.00
29935;BME280;19905;53.370;-6.314;2023-07-24T01:05:33;100527.28;;;11.77;100.00
29935;BME280;19905;53.370;-6.314;2023-07-24T01:08:03;100522.13;;;11.75;100.00
29935;BME280;19905;53.370;-6.314;2023-07-24T01:10:32;100521.44;;;11.73;100.00
29935;BME280;19905;53.370;-6.314;2023-07-24T01:13:04;100526.72;;;11.73;100.00
29935;BME280;19905;53.370;-6.314;2023-07-24T01:15:36;100521.53;;;11.71;100.00
29935;BME280;19905;53.370;-6.314;2023-07-24T01:18:08;100526.00;;;11.71;100.00
29935;BME280;19905;53.370;-6.314;2023-07-24T01:20:43;100525.84;;;11.73;100.00
29935;BME280;19905;53.370;-6.314;2023-07-24T01:23:34;100522.25;;;11.74;100.00
29935;BME280;19905;53.370;-6.314;2023-07-24T01:26:08;100532.72;;;11.75;100.00
29935;BME280;19905;53.370;-6.314;2023-07-24T01:28:36;100525.84;;;11.73;100.00
29935;BME280;19905;53.370;-6.314;2023-07-24T01:31:06;100524.06;;;11.73;100.00
29935;BME280;19905;53.370;-6.314;2023-07-24T01:33:35;100532.84;;;11.74;100.00
29935;BME280;19905;53.370;-6.314;2023-07-24T01:36:05;100537.31;;;11.73;100.00
29935;BME280;19905;53.370;-6.314;2023-07-24T01:38:35;100533.69;;;11.74;100.00
29935;BME280;19905;53.370;-6.314;2023-07-24T01:41:06;100533.69;;;11.74;100.00
29935;BME280;19905;53.370;-6.314;2023-07-24T01:43:35;100538.69;;;11.77;100.00
29935;BME280;19905;53.370;-6.314;2023-07-24T01:46:04;100533.03;;;11.82;100.00
29935;BME280;19905;53.370;-6.314;2023-07-24T01:48:33;100530.38;;;11.82;100.00
29935;BME280;19905;53.370;-6.314;2023-07-24T01:51:02;100540.03;;;11.83;100.00
29935;BME280;19905;53.370;-6.314;2023-07-24T01:53:31;100531.81;;;11.86;100.00
29935;BME280;19905;53.370;-6.314;2023-07-24T01:56:00;100530.00;;;11.86;100.00
29935;BME280;19905;53.370;-6.314;2023-07-24T01:58:29;100536.72;;;11.90;100.00
29935;BME280;19905;53.370;-6.314;2023-07-24T02:00:58;100531.44;;;11.90;100.00
29935;BME280;19905;53.370;-6.314;2023-07-24T02:03:27;100538.44;;;11.91;100.00
29935;BME280;19905;53.370;-6.314;2023-07-24T02:05:55;100540.22;;;11.91;100.00
29935;BME280;19905;53.370;-6.314;2023-07-24T02:08:24;100540.50;;;11.88;100.00
29935;BME280;19905;53.370;-6.314;2023-07-24T02:10:52;100535.06;;;11.89;100.00
29935;BME280;19905;53.370;-6.314;2023-07-24T02:13:21;100537.72;;;11.89;100.00
29935;BME280;19905;53.370;-6.314;2023-07-24T02:15:51;100536.03;;;11.88;100.00
29935;BME280;19905;53.370;-6.314;2023-07-24T02:18:21;100541.47;;;11.87;100.00
29935;BME280;19905;53.370;-6.314;2023-07-24T02:20:49;100535.44;;;11.85;100.00
29935;BME280;19905;53.370;-6.314;2023-07-24T02:23:20;100530.75;;;11.77;100.00
29935;BME280;19905;53.370;-6.314;2023-07-24T02:25:51;100540.78;;;11.74;100.00
29935;BME280;19905;53.370;-6.314;2023-07-24T02:28:20;100539.94;;;11.73;100.00
29935;BME280;19905;53.370;-6.314;2023-07-24T02:30:50;100540.91;;;11.72;100.00
29935;BME280;19905;53.370;-6.314;2023-07-24T02:33:23;100539.56;;;11.78;100.00
29935;BME280;19905;53.370;-6.314;2023-07-24T02:35:52;100544.97;;;11.76;100.00
29935;BME280;19905;53.370;-6.314;2023-07-24T02:38:21;100538.84;;;11.76;100.00
29935;BME280;19905;53.370;-6.314;2023-07-24T02:40:51;100550.41;;;11.75;100.00
29935;BME280;19905;53.370;-6.314;2023-07-24T02:43:19;100554.72;;;11.76;100.00
29935;BME280;19905;53.370;-6.314;2023-07-24T02:45:48;100556.38;;;11.77;100.00
29935;BME280;19905;53.370;-6.314;2023-07-24T02:48:18;100551.81;;;11.79;100.00
29935;BME280;19905;53.370;-6.314;2023-07-24T02:50:47;100551.09;;;11.77;100.00
29935;BME280;19905;53.370;-6.314;2023-07-24T02:53:17;100545.81;;;11.77;100.00
29935;BME280;19905;53.370;-6.314;2023-07-24T02:55:46;100552.31;;;11.73;100.00
29935;BME280;19905;53.370;-6.314;2023-07-24T02:58:15;100549.81;;;11.71;100.00
29935;BME280;19905;53.370;-6.314;2023-07-24T03:00:43;100556.66;;;11.74;100.00
29935;BME280;19905;53.370;-6.314;2023-07-24T03:03:12;100558.47;;;11.73;100.00
29935;BME280;19905;53.370;-6.314;2023-07-24T03:05:42;100562.78;;;11.74;100.00
29935;BME280;19905;53.370;-6.314;2023-07-24T03:08:10;100560.16;;;11.74;100.00
29935;BME280;19905;53.370;-6.314;2023-07-24T03:10:40;100564.59;;;11.74;100.00
29935;BME280;19905;53.370;-6.314;2023-07-24T03:13:09;100558.47;;;11.73;100.00
29935;BME280;19905;53.370;-6.314;2023-07-24T03:15:38;100565.69;;;11.71;100.00
29935;BME280;19905;53.370;-6.314;2023-07-24T03:18:06;100569.53;;;11.67;100.00
29935;BME280;19905;53.370;-6.314;2023-07-24T03:20:35;100569.69;;;11.65;100.00
29935;BME280;19905;53.370;-6.314;2023-07-24T03:23:05;100562.97;;;11.61;100.00
29935;BME280;19905;53.370;-6.314;2023-07-24T03:25:34;100578.16;;;11.59;100.00
29935;BME280;19905;53.370;-6.314;2023-07-24T03:28:04;100573.34;;;11.53;100.00
29935;BME280;19905;53.370;-6.314;2023-07-24T03:30:33;100574.81;;;11.46;100.00
29935;BME280;19905;53.370;-6.314;2023-07-24T03:33:02;100573.25;;;11.43;100.00
29935;BME280;19905;53.370;-6.314;2023-07-24T03:35:30;100571.97;;;11.38;100.00
29935;BME280;19905;53.370;-6.314;2023-07-24T03:37:59;100585.69;;;11.32;100.00
29935;BME280;19905;53.370;-6.314;2023-07-24T03:40:29;100578.84;;;11.29;100.00
29935;BME280;19905;53.370;-6.314;2023-07-24T03:42:57;100582.47;;;11.28;100.00
29935;BME280;19905;53.370;-6.314;2023-07-24T03:45:27;100584.97;;;11.30;100.00
29935;BME280;19905;53.370;-6.314;2023-07-24T03:47:56;100588.22;;;11.33;100.00
29935;BME280;19905;53.370;-6.314;2023-07-24T03:50:25;100597.44;;;11.39;100.00
29935;BME280;19905;53.370;-6.314;2023-07-24T03:52:53;100601.53;;;11.43;100.00
29935;BME280;19905;53.370;-6.314;2023-07-24T03:55:22;100606.28;;;11.49;100.00
29935;BME280;19905;53.370;-6.314;2023-07-24T03:57:52;100602.44;;;11.53;100.00
29935;BME280;19905;53.370;-6.314;2023-07-24T04:00:21;100605.69;;;11.57;100.00
29935;BME280;19905;53.370;-6.314;2023-07-24T04:02:49;100606.38;;;11.59;100.00
29935;BME280;19905;53.370;-6.314;2023-07-24T04:05:18;100614.91;;;11.62;100.00
29935;BME280;19905;53.370;-6.314;2023-07-24T04:07:47;100606.13;;;11.62;100.00
29935;BME280;19905;53.370;-6.314;2023-07-24T04:10:16;100611.44;;;11.62;100.00
29935;BME280;19905;53.370;-6.314;2023-07-24T04:12:44;100613.09;;;11.63;100.00
29935;BME280;19905;53.370;-6.314;2023-07-24T04:15:15;100613.09;;;11.63;100.00
29935;BME280;19905;53.370;-6.314;2023-07-24T04:17:43;100614.06;;;11.62;100.00
29935;BME280;19905;53.370;-6.314;2023-07-24T04:20:12;100622.97;;;11.61;100.00
29935;BME280;19905;53.370;-6.314;2023-07-24T04:22:40;100628.41;;;11.59;100.00
29935;BME280;19905;53.370;-6.314;2023-07-24T04:25:09;100617.94;;;11.58;100.00
29935;BME280;19905;53.370;-6.314;2023-07-24T04:27:38;100624.34;;;11.55;100.00
29935;BME280;19905;53.370;-6.314;2023-07-24T04:30:07;100615.41;;;11.56;100.00
29935;BME280;19905;53.370;-6.314;2023-07-24T04:32:38;100625.16;;;11.56;100.00
29935;BME280;19905;53.370;-6.314;2023-07-24T04:35:07;100624.06;;;11.58;100.00
29935;BME280;19905;53.370;-6.314;2023-07-24T04:37:36;100624.53;;;11.63;100.00
29935;BME280;19905;53.370;-6.314;2023-07-24T04:40:05;100630.53;;;11.65;100.00
29935;BME280;19905;53.370;-6.314;2023-07-24T04:42:34;100624.28;;;11.66;100.00
29935;BME280;19905;53.370;-6.314;2023-07-24T04:45:03;100628.59;;;11.67;100.00
29935;BME280;19905;53.370;-6.314;2023-07-24T04:47:32;100633.19;;;11.65;100.00
29935;BME280;19905;53.370;-6.314;2023-07-24T04:50:03;100633.44;;;11.62;100.00
29935;BME280;19905;53.370;-6.314;2023-07-24T04:52:32;100640.53;;;11.62;100.00
29935;BME280;19905;53.370;-6.314;2023-07-24T04:55:01;100646.56;;;11.64;100.00
29935;BME280;19905;53.370;-6.314;2023-07-24T04:57:29;100644.84;;;11.63;100.00
29935;BME280;19905;53.370;-6.314;2023-07-24T04:59:58;100641.38;;;11.62;100.00
29935;BME280;19905;53.370;-6.314;2023-07-24T05:02:26;100641.25;;;11.64;100.00
29935;BME280;19905;53.370;-6.314;2023-07-24T05:04:55;100651.72;;;11.65;100.00
29935;BME280;19905;53.370;-6.314;2023-07-24T05:07:25;100653.63;;;11.63;100.00
29935;BME280;19905;53.370;-6.314;2023-07-24T05:09:54;100661.44;;;11.65;100.00
29935;BME280;19905;53.370;-6.314;2023-07-24T05:12:22;100656.16;;;11.65;100.00
29935;BME280;19905;53.370;-6.314;2023-07-24T05:14:51;100662.16;;;11.67;100.00
29935;BME280;19905;53.370;-6.314;2023-07-24T05:17:20;100666.47;;;11.68;100.00
29935;BME280;19905;53.370;-6.314;2023-07-24T05:19:48;100667.44;;;11.67;100.00
29935;BME280;19905;53.370;-6.314;2023-07-24T05:22:16;100673.00;;;11.64;100.00
29935;BME280;19905;53.370;-6.314;2023-07-24T05:24:47;100670.47;;;11.62;100.00
29935;BME280;19905;53.370;-6.314;2023-07-24T05:27:15;100675.88;;;11.61;100.00
29935;BME280;19905;53.370;-6.314;2023-07-24T05:29:44;100681.56;;;11.56;100.00
29935;BME280;19905;53.370;-6.314;2023-07-24T05:32:12;100688.06;;;11.52;100.00
29935;BME280;19905;53.370;-6.314;2023-07-24T05:34:41;100681.09;;;11.51;100.00
29935;BME280;19905;53.370;-6.314;2023-07-24T05:37:12;100688.28;;;11.49;100.00
29935;BME280;19905;53.370;-6.314;2023-07-24T05:39:41;100678.53;;;11.50;100.00
29935;BME280;19905;53.370;-6.314;2023-07-24T05:42:10;100682.75;;;11.52;100.00
29935;BME280;19905;53.370;-6.314;2023-07-24T05:44:39;100689.88;;;11.52;100.00
29935;BME280;19905;53.370;-6.314;2023-07-24T05:47:08;100690.84;;;11.51;100.00
29935;BME280;19905;53.370;-6.314;2023-07-24T05:49:36;100694.19;;;11.53;100.00
29935;BME280;19905;53.370;-6.314;2023-07-24T05:52:08;100692.38;;;11.53;100.00
29935;BME280;19905;53.370;-6.314;2023-07-24T05:54:37;100693.94;;;11.56;100.00
29935;BME280;19905;53.370;-6.314;2023-07-24T05:57:06;100695.84;;;11.65;100.00
29935;BME280;19905;53.370;-6.314;2023-07-24T05:59:36;100702.91;;;11.76;100.00
29935;BME280;19905;53.370;-6.314;2023-07-24T06:02:05;100699.66;;;11.83;100.00
29935;BME280;19905;53.370;-6.314;2023-07-24T06:04:35;100701.81;;;11.89;100.00
29935;BME280;19905;53.370;-6.314;2023-07-24T06:07:04;100694.09;;;11.98;100.00
29935;BME280;19905;53.370;-6.314;2023-07-24T06:09:33;100691.91;;;12.03;100.00
29935;BME280;19905;53.370;-6.314;2023-07-24T06:12:01;100701.25;;;12.07;100.00
29935;BME280;19905;53.370;-6.314;2023-07-24T06:14:30;100698.94;;;12.13;100.00
29935;BME280;19905;53.370;-6.314;2023-07-24T06:17:00;100694.22;;;12.17;100.00
29935;BME280;19905;53.370;-6.314;2023-07-24T06:19:28;100692.31;;;12.19;100.00
29935;BME280;19905;53.370;-6.314;2023-07-24T06:21:57;100700.31;;;12.29;100.00
29935;BME280;19905;53.370;-6.314;2023-07-24T06:24:25;100703.44;;;12.34;100.00
29935;BME280;19905;53.370;-6.314;2023-07-24T06:26:54;100708.78;;;12.43;100.00
29935;BME280;19905;53.370;-6.314;2023-07-24T06:29:23;100706.44;;;12.50;100.00
29935;BME280;19905;53.370;-6.314;2023-07-24T06:31:52;100702.56;;;12.54;100.00
29935;BME280;19905;53.370;-6.314;2023-07-24T06:34:22;100699.28;;;12.62;100.00
29935;BME280;19905;53.370;-6.314;2023-07-24T06:36:51;100706.13;;;12.64;100.00
29935;BME280;19905;53.370;-6.314;2023-07-24T06:39:20;100697.97;;;12.77;100.00
29935;BME280;19905;53.370;-6.314;2023-07-24T06:41:48;100703.59;;;12.84;100.00
29935;BME280;19905;53.370;-6.314;2023-07-24T06:44:17;100698.41;;;12.82;100.00
29935;BME280;19905;53.370;-6.314;2023-07-24T06:46:46;100700.97;;;12.93;100.00
29935;BME280;19905;53.370;-6.314;2023-07-24T06:49:14;100694.44;;;12.97;100.00
29935;BME280;19905;53.370;-6.314;2023-07-24T06:51:44;100696.72;;;13.12;100.00
29935;BME280;19905;53.370;-6.314;2023-07-24T06:54:12;100703.38;;;13.27;100.00
29935;BME280;19905;53.370;-6.314;2023-07-24T06:56:41;100702.22;;;13.20;100.00
29935;BME280;19905;53.370;-6.314;2023-07-24T06:59:10;100701.19;;;13.11;100.00
29935;BME280;19905;53.370;-6.314;2023-07-24T07:01:39;100693.59;;;12.97;100.00
29935;BME280;19905;53.370;-6.314;2023-07-24T07:04:07;100700.84;;;12.95;100.00
29935;BME280;19905;53.370;-6.314;2023-07-24T07:06:36;100702.22;;;12.89;100.00
29935;BME280;19905;53.370;-6.314;2023-07-24T07:09:06;100702.22;;;12.89;100.00
29935;BME280;19905;53.370;-6.314;2023-07-24T07:11:35;100702.25;;;12.99;100.00
29935;BME280;19905;53.370;-6.314;2023-07-24T07:14:04;100706.31;;;13.03;100.00
29935;BME280;19905;53.370;-6.314;2023-07-24T07:16:35;100712.22;;;13.07;100.00
29935;BME280;19905;53.370;-6.314;2023-07-24T07:19:04;100701.31;;;13.10;100.00
29935;BME280;19905;53.370;-6.314;2023-07-24T07:21:33;100702.31;;;13.18;100.00
29935;BME280;19905;53.370;-6.314;2023-07-24T07:24:02;100693.06;;;13.34;100.00
29935;BME280;19905;53.370;-6.314;2023-07-24T07:26:32;100685.31;;;13.52;100.00
29935;BME280;19905;53.370;-6.314;2023-07-24T07:29:01;100689.81;;;13.70;100.00
29935;BME280;19905;53.370;-6.314;2023-07-24T07:31:30;100688.97;;;13.89;100.00
29935;BME280;19905;53.370;-6.314;2023-07-24T07:33:58;100682.53;;;14.02;100.00
29935;BME280;19905;53.370;-6.314;2023-07-24T07:36:27;100681.69;;;14.11;100.00
29935;BME280;19905;53.370;-6.314;2023-07-24T07:38:55;100684.47;;;14.29;100.00
29935;BME280;19905;53.370;-6.314;2023-07-24T07:41:24;100664.91;;;14.39;100.00
29935;BME280;19905;53.370;-6.314;2023-07-24T07:43:54;100679.69;;;14.61;100.00
29935;BME280;19905;53.370;-6.314;2023-07-24T07:46:23;100666.66;;;14.68;100.00
29935;BME280;19905;53.370;-6.314;2023-07-24T07:48:51;100670.00;;;14.70;100.00
29935;BME280;19905;53.370;-6.314;2023-07-24T07:51:20;100676.66;;;14.84;100.00
29935;BME280;19905;53.370;-6.314;2023-07-24T07:53:50;100665.53;;;14.70;100.00
29935;BME280;19905;53.370;-6.314;2023-07-24T07:56:18;100664.22;;;14.84;100.00
29935;BME280;19905;53.370;-6.314;2023-07-24T07:58:47;100652.22;;;14.80;100.00
29935;BME280;19905;53.370;-6.314;2023-07-24T08:01:17;100637.22;;;14.79;100.00
29935;BME280;19905;53.370;-6.314;2023-07-24T08:03:47;100641.16;;;14.75;100.00
29935;BME280;19905;53.370;-6.314;2023-07-24T08:06:18;100635.75;;;14.67;100.00
29935;BME280;19905;53.370;-6.314;2023-07-24T08:08:48;100643.88;;;14.56;100.00
29935;BME280;19905;53.370;-6.314;2023-07-24T08:11:16;100642.22;;;14.55;100.00
29935;BME280;19905;53.370;-6.314;2023-07-24T08:13:45;100645.97;;;14.62;100.00
29935;BME280;19905;53.370;-6.314;2023-07-24T08:16:14;100650.91;;;14.84;100.00
29935;BME280;19905;53.370;-6.314;2023-07-24T08:18:50;100651.72;;;14.94;100.00
29935;BME280;19905;53.370;-6.314;2023-07-24T08:21:18;100655.03;;;15.06;100.00
29935;BME280;19905;53.370;-6.314;2023-07-24T08:23:47;100659.34;;;15.17;100.00
29935;BME280;19905;53.370;-6.314;2023-07-24T08:26:15;100655.22;;;15.22;100.00
29935;BME280;19905;53.370;-6.314;2023-07-24T08:28:44;100652.03;;;15.19;100.00
29935;BME280;19905;53.370;-6.314;2023-07-24T08:31:13;100646.59;;;15.11;100.00
29935;BME280;19905;53.370;-6.314;2023-07-24T08:33:41;100653.91;;;15.09;100.00
29935;BME280;19905;53.370;-6.314;2023-07-24T08:36:11;100649.19;;;14.93;100.00
29935;BME280;19905;53.370;-6.314;2023-07-24T08:38:40;100653.25;;;14.97;100.00
29935;BME280;19905;53.370;-6.314;2023-07-24T08:41:10;100641.09;;;14.94;100.00
29935;BME280;19905;53.370;-6.314;2023-07-24T08:43:41;100652.97;;;15.00;100.00
29935;BME280;19905;53.370;-6.314;2023-07-24T08:46:11;100631.41;;;14.93;100.00
29935;BME280;19905;53.370;-6.314;2023-07-24T08:48:40;100638.94;;;15.08;100.00
29935;BME280;19905;53.370;-6.314;2023-07-24T08:51:13;100641.66;;;15.16;100.00
29935;BME280;19905;53.370;-6.314;2023-07-24T08:53:43;100642.06;;;15.21;100.00
29935;BME280;19905;53.370;-6.314;2023-07-24T08:56:12;100635.97;;;15.11;100.00
29935;BME280;19905;53.370;-6.314;2023-07-24T08:58:48;100639.50;;;15.29;100.00
29935;BME280;19905;53.370;-6.314;2023-07-24T09:01:20;100642.63;;;15.42;100.00
29935;BME280;19905;53.370;-6.314;2023-07-24T09:03:58;100648.25;;;15.39;100.00
29935;BME280;19905;53.370;-6.314;2023-07-24T09:06:30;100649.34;;;15.46;100.00
29935;BME280;19905;53.370;-6.314;2023-07-24T09:09:00;100637.53;;;15.31;100.00
29935;BME280;19905;53.370;-6.314;2023-07-24T09:11:30;100636.94;;;15.37;100.00
29935;BME280;19905;53.370;-6.314;2023-07-24T09:13:58;100641.19;;;15.48;100.00
29935;BME280;19905;53.370;-6.314;2023-07-24T09:16:49;100642.13;;;15.57;100.00
29935;BME280;19905;53.370;-6.314;2023-07-24T09:19:23;100641.25;;;15.84;100.00
29935;BME280;19905;53.370;-6.314;2023-07-24T09:21:55;100638.56;;;16.01;100.00
29935;BME280;19905;53.370;-6.314;2023-07-24T09:24:33;100635.69;;;15.95;100.00
29935;BME280;19905;53.370;-6.314;2023-07-24T09:27:10;100632.03;;;15.96;100.00
29935;BME280;19905;53.370;-6.314;2023-07-24T09:29:42;100636.97;;;16.09;100.00
29935;BME280;19905;53.370;-6.314;2023-07-24T09:32:19;100642.75;;;16.22;100.00
29935;BME280;19905;53.370;-6.314;2023-07-24T09:34:48;100638.69;;;16.44;100.00
29935;BME280;19905;53.370;-6.314;2023-07-24T09:37:29;100637.56;;;16.46;100.00
29935;BME280;19905;53.370;-6.314;2023-07-24T09:43:00;100631.38;;;16.20;100.00
29935;BME280;19905;53.370;-6.314;2023-07-24T09:45:50;100640.31;;;16.11;100.00
29935;BME280;19905;53.370;-6.314;2023-07-24T09:48:21;100634.47;;;15.89;100.00
29935;BME280;19905;53.370;-6.314;2023-07-24T09:50:55;100638.28;;;15.87;100.00
29935;BME280;19905;53.370;-6.314;2023-07-24T09:53:32;100643.06;;;15.83;100.00
29935;BME280;19905;53.370;-6.314;2023-07-24T09:56:04;100648.19;;;15.77;100.00
29935;BME280;19905;53.370;-6.314;2023-07-24T09:58:37;100641.63;;;15.89;100.00
29935;BME280;19905;53.370;-6.314;2023-07-24T10:01:09;100646.16;;;16.14;100.00
29935;BME280;19905;53.370;-6.314;2023-07-24T10:03:40;100644.88;;;16.18;100.00
29935;BME280;19905;53.370;-6.314;2023-07-24T10:06:09;100648.13;;;16.12;100.00
29935;BME280;19905;53.370;-6.314;2023-07-24T10:08:41;100630.56;;;16.45;100.00
29935;BME280;19905;53.370;-6.314;2023-07-24T10:11:13;100635.28;;;16.77;100.00
29935;BME280;19905;53.370;-6.314;2023-07-24T10:13:42;100627.06;;;17.05;100.00
29935;BME280;19905;53.370;-6.314;2023-07-24T10:16:11;100626.66;;;17.42;100.00
29935;BME280;19905;53.370;-6.314;2023-07-24T10:18:48;100629.38;;;17.67;100.00
29935;BME280;19905;53.370;-6.314;2023-07-24T10:21:27;100627.50;;;17.59;100.00
29935;BME280;19905;53.370;-6.314;2023-07-24T10:24:02;100629.34;;;17.50;100.00
29935;BME280;19905;53.370;-6.314;2023-07-24T10:26:34;100624.47;;;17.30;100.00
29935;BME280;19905;53.370;-6.314;2023-07-24T10:29:04;100622.25;;;17.17;100.00
29935;BME280;19905;53.370;-6.314;2023-07-24T10:31:35;100624.91;;;17.17;100.00
29935;BME280;19905;53.370;-6.314;2023-07-24T10:34:11;100622.59;;;17.14;100.00
29935;BME280;19905;53.370;-6.314;2023-07-24T10:36:41;100618.00;;;17.48;100.00
29935;BME280;19905;53.370;-6.314;2023-07-24T10:39:16;100620.97;;;17.45;100.00
29935;BME280;19905;53.370;-6.314;2023-07-24T10:41:45;100619.50;;;17.59;100.00
29935;BME280;19905;53.370;-6.314;2023-07-24T10:44:15;100620.75;;;17.97;100.00
29935;BME280;19905;53.370;-6.314;2023-07-24T10:46:45;100619.72;;;17.90;100.00
29935;BME280;19905;53.370;-6.314;2023-07-24T10:49:21;100625.41;;;18.20;100.00
29935;BME280;19905;53.370;-6.314;2023-07-24T10:51:55;100624.19;;;18.47;100.00
29935;BME280;19905;53.370;-6.314;2023-07-24T10:54:26;100617.34;;;18.44;100.00
29935;BME280;19905;53.370;-6.314;2023-07-24T10:57:00;100616.81;;;18.49;100.00
29935;BME280;19905;53.370;-6.314;2023-07-24T10:59:38;100626.06;;;18.14;100.00
29935;BME280;19905;53.370;-6.314;2023-07-24T11:02:09;100625.91;;;18.07;100.00
29935;BME280;19905;53.370;-6.314;2023-07-24T11:04:54;100631.75;;;17.86;100.00
29935;BME280;19905;53.370;-6.314;2023-07-24T11:07:32;100634.59;;;17.76;100.00
29935;BME280;19905;53.370;-6.314;2023-07-24T11:10:03;100628.09;;;17.79;100.00
29935;BME280;19905;53.370;-6.314;2023-07-24T11:12:39;100627.91;;;17.81;100.00
29935;BME280;19905;53.370;-6.314;2023-07-24T11:15:08;100627.22;;;17.87;100.00
29935;BME280;19905;53.370;-6.314;2023-07-24T11:17:43;100633.09;;;17.90;100.00
29935;BME280;19905;53.370;-6.314;2023-07-24T11:20:14;100628.25;;;17.86;100.00
29935;BME280;19905;53.370;-6.314;2023-07-24T11:22:43;100627.41;;;18.18;100.00
29935;BME280;19905;53.370;-6.314;2023-07-24T11:25:14;100621.53;;;18.14;100.00
29935;BME280;19905;53.370;-6.314;2023-07-24T11:27:43;100618.72;;;17.99;100.00
29935;BME280;19905;53.370;-6.314;2023-07-24T11:30:19;100610.84;;;18.39;100.00
29935;BME280;19905;53.370;-6.314;2023-07-24T11:32:48;100619.34;;;18.42;100.00
29935;BME280;19905;53.370;-6.314;2023-07-24T11:35:19;100620.03;;;18.36;100.00
29935;BME280;19905;53.370;-6.314;2023-07-24T11:37:49;100617.31;;;18.52;100.00
29935;BME280;19905;53.370;-6.314;2023-07-24T11:40:21;100617.28;;;18.77;100.00
29935;BME280;19905;53.370;-6.314;2023-07-24T11:43:03;100613.63;;;19.09;100.00
29935;BME280;19905;53.370;-6.314;2023-07-24T11:45:41;100618.03;;;19.56;100.00
29935;BME280;19905;53.370;-6.314;2023-07-24T11:48:11;100611.34;;;19.83;100.00
29935;BME280;19905;53.370;-6.314;2023-07-24T11:50:46;100606.88;;;19.98;100.00
29935;BME280;19905;53.370;-6.314;2023-07-24T11:53:24;100608.88;;;19.96;100.00
29935;BME280;19905;53.370;-6.314;2023-07-24T11:56:00;100611.78;;;20.10;100.00
29935;BME280;19905;53.370;-6.314;2023-07-24T11:58:40;100610.25;;;19.69;100.00
29935;BME280;19905;53.370;-6.314;2023-07-24T12:01:10;100621.16;;;19.68;100.00
29935;BME280;19905;53.370;-6.314;2023-07-24T12:03:40;100615.47;;;19.71;100.00
29935;BME280;19905;53.370;-6.314;2023-07-24T12:06:14;100612.31;;;19.59;100.00
29935;BME280;19905;53.370;-6.314;2023-07-24T12:08:49;100613.13;;;19.37;100.00
29935;BME280;19905;53.370;-6.314;2023-07-24T12:11:28;100612.16;;;19.07;100.00
29935;BME280;19905;53.370;-6.314;2023-07-24T12:13:58;100604.78;;;19.00;100.00
29935;BME280;19905;53.370;-6.314;2023-07-24T12:16:28;100605.78;;;19.08;100.00
29935;BME280;19905;53.370;-6.314;2023-07-24T12:18:59;100613.19;;;18.97;100.00
29935;BME280;19905;53.370;-6.314;2023-07-24T12:21:30;100616.78;;;18.65;100.00
29935;BME280;19905;53.370;-6.314;2023-07-24T12:24:05;100604.56;;;18.79;100.00
29935;BME280;19905;53.370;-6.314;2023-07-24T12:26:35;100603.34;;;18.90;100.00
29935;BME280;19905;53.370;-6.314;2023-07-24T12:29:04;100600.53;;;18.83;100.00
29935;BME280;19905;53.370;-6.314;2023-07-24T12:31:33;100604.50;;;18.87;100.00
29935;BME280;19905;53.370;-6.314;2023-07-24T12:34:04;100608.88;;;19.50;100.00
29935;BME280;19905;53.370;-6.314;2023-07-24T12:36:33;100602.41;;;19.05;100.00
29935;BME280;19905;53.370;-6.314;2023-07-24T12:39:01;100605.47;;;18.47;100.00
29935;BME280;19905;53.370;-6.314;2023-07-24T12:41:30;100604.81;;;18.37;100.00
29935;BME280;19905;53.370;-6.314;2023-07-24T12:44:08;100605.00;;;18.27;100.00
29935;BME280;19905;53.370;-6.314;2023-07-24T12:46:38;100603.69;;;18.15;100.00
29935;BME280;19905;53.370;-6.314;2023-07-24T12:49:07;100600.97;;;18.31;100.00